Time;durP1;ratioP1;P1;durP2;ratioP2;P2;SDS_P1;SDS_P2;PMS_P1;PMS_P2;Temp;Humidity;BMP_temperature;BMP_pressure;BME280_temperature;BME280_humidity;BME280_pressure;Samples;Min_cycle;Max_cycle;Signal;HPM_P1;HPM_P2
2021/10/14 00:01:29;;;;;;;5.57;4.57;;;12.90;99.90;;;;;;5020370;28;20227;-64
2021/10/14 00:03:56;;;;;;;9.02;4.95;;;12.90;99.90;;;;;;5019802;28;20707;-65
2021/10/14 00:06:23;;;;;;;8.07;5.50;;;12.90;99.90;;;;;;5020594;28;20232;-65
2021/10/14 00:08:50;;;;;;;4.75;3.78;;;12.90;99.90;;;;;;5020654;28;20222;-65
2021/10/14 00:11:17;;;;;;;7.25;4.82;;;12.90;99.90;;;;;;5020596;28;20222;-64
2021/10/14 00:13:44;;;;;;;6.45;5.80;;;12.90;99.90;;;;;;5020599;28;21376;-65
2021/10/14 00:16:13;;;;;;;7.90;3.83;;;12.90;99.90;;;;;;5019913;28;20222;-65
2021/10/14 00:18:43;;;;;;;4.60;3.95;;;12.90;99.90;;;;;;5019989;28;20225;-65
2021/10/14 00:21:10;;;;;;;6.10;5.50;;;12.90;99.90;;;;;;5019904;28;20222;-65
2021/10/14 00:23:37;;;;;;;8.50;5.95;;;12.90;99.90;;;;;;5020518;28;20222;-65
2021/10/14 00:26:05;;;;;;;5.25;4.75;;;12.90;99.90;;;;;;5019300;28;20223;-65
2021/10/14 00:28:32;;;;;;;6.88;4.93;;;12.90;99.90;;;;;;5019819;28;20233;-65
2021/10/14 00:30:59;;;;;;;7.53;5.40;;;12.90;99.90;;;;;;5019125;28;20222;-65
2021/10/14 00:33:27;;;;;;;6.65;6.15;;;12.90;99.90;;;;;;5020279;28;20232;-65
2021/10/14 00:35:54;;;;;;;7.70;7.00;;;12.90;99.90;;;;;;5019776;28;20296;-64
2021/10/14 00:38:21;;;;;;;6.55;4.22;;;12.90;99.90;;;;;;5020003;28;20225;-64
2021/10/14 00:40:48;;;;;;;6.22;4.90;;;12.90;99.90;;;;;;5020348;28;20552;-64
2021/10/14 00:43:15;;;;;;;5.80;4.28;;;12.90;99.90;;;;;;5019701;28;20218;-64
2021/10/14 00:45:42;;;;;;;5.85;5.18;;;12.90;99.90;;;;;;5020245;28;20218;-64
2021/10/14 00:48:09;;;;;;;6.72;4.78;;;12.90;99.90;;;;;;5019506;28;20218;-64
2021/10/14 00:50:38;;;;;;;7.30;4.97;;;12.90;99.90;;;;;;5019771;28;20241;-64
2021/10/14 00:53:07;;;;;;;6.40;4.38;;;12.90;99.90;;;;;;5019421;28;20218;-64
2021/10/14 00:55:34;;;;;;;7.88;3.90;;;12.90;99.90;;;;;;5019649;28;20229;-64
2021/10/14 00:58:01;;;;;;;4.43;3.70;;;12.90;99.90;;;;;;5019120;28;20233;-64
2021/10/14 01:00:31;;;;;;;4.00;3.60;;;12.90;99.90;;;;;;5019863;28;20230;-64
2021/10/14 01:02:58;;;;;;;6.13;4.22;;;12.80;99.90;;;;;;5019445;28;20308;-65
2021/10/14 01:05:25;;;;;;;5.13;4.30;;;12.80;99.90;;;;;;5019447;28;20269;-64
2021/10/14 01:07:53;;;;;;;6.57;3.92;;;12.80;99.90;;;;;;5019434;28;20234;-64
2021/10/14 01:10:20;;;;;;;4.38;3.95;;;12.80;99.90;;;;;;5019292;28;20229;-65
2021/10/14 01:12:50;;;;;;;4.97;3.47;;;12.80;99.90;;;;;;5019349;28;20563;-65
2021/10/14 01:15:20;;;;;;;5.50;4.40;;;12.80;99.90;;;;;;5019220;28;20595;-65
2021/10/14 01:17:47;;;;;;;6.00;4.50;;;12.80;99.90;;;;;;5019763;28;20229;-65
2021/10/14 01:20:15;;;;;;;5.38;3.83;;;12.80;99.90;;;;;;5018740;28;20222;-64
2021/10/14 01:22:42;;;;;;;7.10;4.32;;;12.80;99.90;;;;;;5019825;28;20228;-65
2021/10/14 01:25:10;;;;;;;6.32;5.03;;;12.80;99.90;;;;;;5018993;28;20229;-65
2021/10/14 01:27:38;;;;;;;5.40;4.63;;;12.80;99.90;;;;;;5019252;28;20226;-66
2021/10/14 01:30:07;;;;;;;3.85;3.55;;;12.80;99.90;;;;;;5018844;28;20627;-65
2021/10/14 01:32:34;;;;;;;5.20;4.70;;;12.80;99.90;;;;;;5019432;28;20228;-66
2021/10/14 01:35:03;;;;;;;4.35;3.95;;;12.80;99.90;;;;;;5018650;28;20218;-65
2021/10/14 01:37:31;;;;;;;5.10;4.60;;;12.80;99.90;;;;;;5019654;28;20253;-66
2021/10/14 01:39:58;;;;;;;4.75;4.35;;;12.80;99.90;;;;;;5018299;28;20679;-66
2021/10/14 01:42:26;;;;;;;5.18;4.68;;;12.80;99.90;;;;;;5018864;28;20237;-66
2021/10/14 01:44:55;;;;;;;5.70;5.20;;;12.80;99.90;;;;;;5018979;28;20229;-66
2021/10/14 01:47:22;;;;;;;8.40;5.78;;;12.80;99.90;;;;;;5018739;28;20225;-65
2021/10/14 01:49:49;;;;;;;7.10;5.50;;;12.80;99.90;;;;;;5019025;28;20229;-65
2021/10/14 01:52:16;;;;;;;8.05;6.32;;;12.80;99.90;;;;;;5018720;28;20252;-66
2021/10/14 01:54:44;;;;;;;10.43;6.60;;;12.80;99.90;;;;;;5019129;28;20569;-66
2021/10/14 01:57:11;;;;;;;7.68;6.88;;;12.80;99.90;;;;;;5018451;28;20229;-66
2021/10/14 01:59:38;;;;;;;9.23;8.32;;;12.80;99.90;;;;;;5018868;28;20694;-65
2021/10/14 02:02:05;;;;;;;6.35;5.43;;;12.80;99.90;;;;;;5018556;28;20255;-65
2021/10/14 02:04:32;;;;;;;5.82;5.25;;;12.80;99.90;;;;;;5019037;28;20225;-66
2021/10/14 02:06:59;;;;;;;12.88;8.77;;;12.80;99.90;;;;;;5018921;28;20231;-66
2021/10/14 02:09:26;;;;;;;10.05;6.68;;;12.80;99.90;;;;;;5018483;28;20225;-66
2021/10/14 02:11:54;;;;;;;7.40;6.80;;;12.80;99.90;;;;;;5018863;28;20233;-65
2021/10/14 02:14:21;;;;;;;5.30;4.80;;;12.80;99.90;;;;;;5018236;28;20236;-65
2021/10/14 02:16:48;;;;;;;8.27;6.15;;;12.80;99.90;;;;;;5018733;28;20240;-66
2021/10/14 02:19:15;;;;;;;7.72;6.60;;;12.90;99.90;;;;;;5018617;28;20237;-65
2021/10/14 02:21:42;;;;;;;9.05;7.88;;;12.90;99.90;;;;;;5018362;28;20236;-65
2021/10/14 02:24:09;;;;;;;7.95;7.15;;;12.90;99.90;;;;;;5018179;28;20218;-65
2021/10/14 02:26:39;;;;;;;6.80;6.10;;;12.90;99.90;;;;;;5018995;28;20609;-65
2021/10/14 02:29:12;;;;;;;6.63;6.03;;;12.90;99.90;;;;;;5017988;28;20237;-65
2021/10/14 02:31:39;;;;;;;8.27;6.55;;;13.00;99.90;;;;;;5018666;28;20562;-65
2021/10/14 02:34:06;;;;;;;7.93;6.72;;;13.00;99.90;;;;;;5014157;28;20619;-66
2021/10/14 02:36:34;;;;;;;10.32;8.55;;;13.00;99.90;;;;;;5010478;28;20566;-65
2021/10/14 02:39:01;;;;;;;8.93;8.02;;;13.00;99.90;;;;;;5009258;28;20234;-65
2021/10/14 02:41:28;;;;;;;10.85;9.70;;;13.10;99.90;;;;;;5010228;28;20604;-65
2021/10/14 02:43:55;;;;;;;10.45;9.48;;;13.10;99.90;;;;;;5021240;28;20234;-65
2021/10/14 02:46:23;;;;;;;10.85;9.85;;;13.00;99.90;;;;;;5010109;28;20218;-66
2021/10/14 02:48:52;;;;;;;8.75;7.95;;;13.10;99.90;;;;;;5010955;28;20291;-66
2021/10/14 02:51:19;;;;;;;9.40;7.90;;;13.10;99.90;;;;;;5011734;28;20226;-65
2021/10/14 02:53:46;;;;;;;7.70;6.75;;;13.10;99.90;;;;;;5014361;28;20231;-65
2021/10/14 02:56:13;;;;;;;7.82;7.10;;;13.10;99.90;;;;;;5015375;28;20313;-65
2021/10/14 02:58:40;;;;;;;5.57;4.90;;;13.10;99.90;;;;;;5015658;28;20775;-65
2021/10/14 03:01:07;;;;;;;7.22;4.70;;;13.10;99.90;;;;;;5024714;28;20691;-65
2021/10/14 03:03:36;;;;;;;7.47;4.70;;;13.10;99.90;;;;;;5034474;28;20228;-66
2021/10/14 03:06:04;;;;;;;5.07;4.60;;;13.10;99.90;;;;;;5035258;28;20229;-65
2021/10/14 03:08:30;;;;;;;4.55;4.07;;;13.10;99.90;;;;;;5034719;28;20567;-65
2021/10/14 03:10:57;;;;;;;6.20;5.47;;;13.10;99.90;;;;;;5035332;28;20229;-65
2021/10/14 03:13:24;;;;;;;4.10;3.70;;;13.10;99.90;;;;;;5034936;28;20232;-65
2021/10/14 03:15:51;;;;;;;4.72;2.40;;;13.00;99.90;;;;;;5035224;28;20229;-65
2021/10/14 03:18:18;;;;;;;2.47;2.28;;;13.00;99.90;;;;;;5034930;28;20237;-65
2021/10/14 03:20:47;;;;;;;3.10;2.65;;;13.00;99.90;;;;;;5035399;28;20248;-65
2021/10/14 03:23:14;;;;;;;2.88;2.53;;;13.00;99.90;;;;;;5034765;28;20228;-65
2021/10/14 03:25:41;;;;;;;4.43;2.50;;;13.00;99.90;;;;;;5035275;28;20226;-65
2021/10/14 03:28:08;;;;;;;3.30;2.72;;;12.90;99.90;;;;;;5034533;28;20233;-65
2021/10/14 03:30:34;;;;;;;3.22;2.33;;;12.90;99.90;;;;;;5035079;28;20235;-65
2021/10/14 03:33:01;;;;;;;3.83;2.47;;;12.90;99.90;;;;;;5035035;28;20236;-65
2021/10/14 03:35:28;;;;;;;2.75;2.55;;;12.80;99.90;;;;;;5034660;28;20563;-65
2021/10/14 03:37:57;;;;;;;5.07;2.15;;;12.80;99.90;;;;;;5034761;28;20728;-65
2021/10/14 03:40:24;;;;;;;2.97;2.50;;;12.70;99.90;;;;;;5034307;28;20244;-65
2021/10/14 03:42:51;;;;;;;4.10;3.25;;;12.70;99.90;;;;;;5034775;28;20229;-65
2021/10/14 03:45:17;;;;;;;2.97;2.70;;;12.60;99.90;;;;;;5014941;28;20691;-65
2021/10/14 03:47:44;;;;;;;2.97;2.78;;;12.50;99.90;;;;;;5014781;28;20239;-65
2021/10/14 03:50:12;;;;;;;3.00;2.70;;;12.60;99.90;;;;;;5014476;28;20228;-65
2021/10/14 03:52:39;;;;;;;3.35;2.55;;;12.60;99.90;;;;;;5014893;28;20228;-65
2021/10/14 03:55:09;;;;;;;3.05;2.75;;;12.50;99.90;;;;;;5014803;28;20229;-65
2021/10/14 03:57:36;;;;;;;3.13;2.80;;;12.50;99.90;;;;;;5014541;28;21475;-65
2021/10/14 04:00:04;;;;;;;3.10;2.90;;;12.50;99.90;;;;;;5014945;28;20237;-65
2021/10/14 04:02:31;;;;;;;5.78;3.35;;;12.50;99.90;;;;;;5033948;28;20240;-65
2021/10/14 04:04:58;;;;;;;4.40;3.28;;;12.40;99.90;;;;;;5034207;28;20247;-65
2021/10/14 04:07:25;;;;;;;3.55;3.25;;;12.40;99.90;;;;;;5034139;28;20567;-65
2021/10/14 04:09:52;;;;;;;2.90;2.70;;;12.40;99.90;;;;;;5034098;28;20265;-65
2021/10/14 04:12:20;;;;;;;4.43;3.03;;;12.40;99.90;;;;;;5033950;28;20314;-65
2021/10/14 04:14:47;;;;;;;5.07;3.78;;;12.40;99.90;;;;;;5034369;28;20229;-66
2021/10/14 04:17:14;;;;;;;3.40;3.10;;;12.30;99.90;;;;;;5033618;28;20703;-65
2021/10/14 04:19:41;;;;;;;3.75;3.45;;;12.30;99.90;;;;;;5034082;28;20228;-65
2021/10/14 04:22:09;;;;;;;2.75;2.55;;;12.30;99.90;;;;;;5034225;28;20228;-65
2021/10/14 04:24:38;;;;;;;3.10;2.90;;;12.30;99.90;;;;;;5033531;28;20224;-65
2021/10/14 04:27:05;;;;;;;2.63;2.42;;;12.30;99.90;;;;;;5034151;28;20585;-65
2021/10/14 04:29:33;;;;;;;5.00;4.53;;;12.30;99.90;;;;;;5033407;28;20244;-66
2021/10/14 04:32:01;;;;;;;7.63;6.80;;;12.30;99.90;;;;;;5033818;28;20223;-65
2021/10/14 04:34:28;;;;;;;5.55;5.05;;;12.30;99.90;;;;;;5033260;28;20230;-66
2021/10/14 04:36:55;;;;;;;8.00;7.20;;;12.40;99.90;;;;;;5033543;28;20232;-65
2021/10/14 04:39:22;;;;;;;5.90;5.30;;;12.40;99.90;;;;;;5033015;28;20240;-65
2021/10/14 04:41:50;;;;;;;4.28;3.97;;;12.40;99.90;;;;;;5033709;28;20225;-65
2021/10/14 04:44:17;;;;;;;3.80;3.10;;;12.40;99.90;;;;;;5021893;28;20280;-66
2021/10/14 04:46:45;;;;;;;3.58;3.28;;;12.40;99.90;;;;;;5014047;28;20251;-65
2021/10/14 04:49:12;;;;;;;2.63;2.42;;;12.40;99.90;;;;;;5013981;28;20229;-65
2021/10/14 04:51:39;;;;;;;3.05;2.85;;;12.40;99.90;;;;;;5013308;28;20656;-65
2021/10/14 04:54:06;;;;;;;2.92;2.72;;;12.50;99.90;;;;;;5013698;28;20229;-65
2021/10/14 04:56:33;;;;;;;2.83;2.58;;;12.50;99.90;;;;;;5013224;28;20230;-65
2021/10/14 04:59:00;;;;;;;3.80;2.78;;;12.50;99.90;;;;;;5013400;28;20240;-65
2021/10/14 05:01:27;;;;;;;2.47;2.35;;;12.50;99.90;;;;;;5025038;28;20221;-65
2021/10/14 05:03:55;;;;;;;3.20;3.00;;;12.50;99.90;;;;;;5033450;28;20232;-65
2021/10/14 05:06:22;;;;;;;3.00;2.80;;;12.50;99.90;;;;;;5032819;28;20238;-65
2021/10/14 05:08:49;;;;;;;2.53;2.33;;;12.50;99.90;;;;;;5033066;28;20229;-65
2021/10/14 05:11:16;;;;;;;2.80;2.60;;;12.50;99.90;;;;;;5033372;28;20607;-65
2021/10/14 05:13:43;;;;;;;3.05;2.75;;;12.50;99.90;;;;;;5033082;28;20687;-65
2021/10/14 05:16:10;;;;;;;2.50;2.15;;;12.50;99.90;;;;;;5032446;28;20235;-65
2021/10/14 05:18:37;;;;;;;2.67;2.47;;;12.60;99.90;;;;;;5032575;28;20228;-65
2021/10/14 05:21:05;;;;;;;2.55;2.35;;;12.60;99.90;;;;;;5033151;28;20225;-65
2021/10/14 05:23:32;;;;;;;2.85;2.65;;;12.60;99.90;;;;;;5032570;28;20221;-65
2021/10/14 05:25:59;;;;;;;2.30;2.20;;;12.60;99.90;;;;;;5032933;28;20237;-65
2021/10/14 05:28:26;;;;;;;2.55;2.45;;;12.60;99.90;;;;;;5032471;28;20222;-66
2021/10/14 05:30:53;;;;;;;2.17;2.08;;;12.70;99.90;;;;;;5032912;28;20252;-65
2021/10/14 05:33:20;;;;;;;2.47;2.13;;;12.60;99.90;;;;;;5032467;28;20229;-65
2021/10/14 05:35:47;;;;;;;2.60;2.30;;;12.60;99.90;;;;;;5032820;28;20236;-65
2021/10/14 05:38:16;;;;;;;3.00;2.80;;;12.60;99.90;;;;;;5015857;28;20237;-65
2021/10/14 05:40:45;;;;;;;2.22;2.10;;;12.70;99.90;;;;;;5012557;28;20241;-65
2021/10/14 05:43:12;;;;;;;2.80;2.60;;;12.70;99.90;;;;;;5023370;28;20244;-65
2021/10/14 05:45:39;;;;;;;3.55;2.78;;;12.70;99.90;;;;;;5012604;28;20279;-65
2021/10/14 05:48:06;;;;;;;4.15;3.85;;;12.70;99.90;;;;;;5012916;28;20299;-65
2021/10/14 05:50:34;;;;;;;4.68;4.38;;;12.80;99.90;;;;;;5012431;28;20218;-66
2021/10/14 05:53:01;;;;;;;6.00;5.60;;;12.80;99.90;;;;;;5012911;28;20224;-66
2021/10/14 05:55:29;;;;;;;4.60;4.30;;;12.80;99.90;;;;;;5012467;28;20699;-65
2021/10/14 05:57:56;;;;;;;4.38;4.07;;;12.80;99.90;;;;;;5012878;28;20241;-65
2021/10/14 06:00:23;;;;;;;6.63;6.13;;;12.90;99.90;;;;;;5015259;28;20217;-65
2021/10/14 06:02:50;;;;;;;6.65;6.18;;;12.90;99.90;;;;;;5032592;28;20691;-65
2021/10/14 06:05:17;;;;;;;7.43;6.85;;;12.90;99.90;;;;;;5032507;28;20222;-65
2021/10/14 06:07:43;;;;;;;6.65;6.15;;;12.90;99.90;;;;;;5032327;28;20221;-65
2021/10/14 06:10:10;;;;;;;5.18;4.78;;;12.90;99.90;;;;;;5032397;28;20228;-64
2021/10/14 06:12:39;;;;;;;5.38;4.95;;;12.90;99.90;;;;;;5032310;28;20228;-64
2021/10/14 06:15:07;;;;;;;4.90;4.50;;;12.90;99.90;;;;;;5032485;28;20225;-64
2021/10/14 06:17:34;;;;;;;4.30;4.00;;;12.90;99.90;;;;;;5031896;28;20663;-65
2021/10/14 06:20:01;;;;;;;5.30;4.90;;;13.00;99.90;;;;;;5032429;28;20316;-64
2021/10/14 06:22:28;;;;;;;6.40;5.90;;;13.00;99.90;;;;;;5031842;28;20225;-64
2021/10/14 06:24:55;;;;;;;7.47;6.78;;;13.00;99.90;;;;;;5032397;28;20217;-64
2021/10/14 06:27:22;;;;;;;7.43;6.72;;;13.00;99.90;;;;;;5034128;28;20213;-64
2021/10/14 06:29:51;;;;;;;8.25;7.55;;;13.00;99.90;;;;;;5035666;28;20941;-64
2021/10/14 06:32:18;;;;;;;8.18;7.47;;;13.00;99.90;;;;;;5036173;28;20233;-66
2021/10/14 06:34:45;;;;;;;6.97;6.13;;;13.00;99.90;;;;;;5035774;28;20232;-65
2021/10/14 06:37:12;;;;;;;7.47;6.88;;;13.00;99.90;;;;;;5027674;28;20233;-66
2021/10/14 06:39:38;;;;;;;7.30;6.70;;;13.10;99.90;;;;;;5015605;28;20226;-67
2021/10/14 06:42:05;;;;;;;6.20;5.70;;;13.10;99.90;;;;;;5020088;28;20221;-66
2021/10/14 06:44:32;;;;;;;11.40;8.70;;;13.10;99.90;;;;;;5022185;28;20229;-67
2021/10/14 06:47:01;;;;;;;6.40;5.75;;;13.10;99.90;;;;;;5016032;28;20226;-66
2021/10/14 06:49:28;;;;;;;8.20;7.45;;;13.10;99.90;;;;;;5015691;28;20217;-66
2021/10/14 06:51:55;;;;;;;8.43;7.72;;;13.10;99.90;;;;;;5016078;28;20226;-65
2021/10/14 06:54:23;;;;;;;8.82;8.23;;;13.10;99.90;;;;;;5015835;28;20222;-65
2021/10/14 06:56:50;;;;;;;7.70;7.10;;;13.10;99.90;;;;;;5015765;28;20239;-65
2021/10/14 06:59:17;;;;;;;8.32;7.43;;;13.20;99.90;;;;;;5015690;28;20226;-65
2021/10/14 07:01:44;;;;;;;9.43;8.70;;;13.20;99.90;;;;;;5029664;28;20252;-65
2021/10/14 07:04:12;;;;;;;8.93;8.13;;;13.20;99.90;;;;;;5035825;28;20225;-65
2021/10/14 07:06:39;;;;;;;10.40;8.95;;;13.20;99.90;;;;;;5035148;28;20573;-65
2021/10/14 07:09:06;;;;;;;9.07;8.32;;;13.20;99.90;;;;;;5035412;28;20236;-65
2021/10/14 07:11:42;;;;;;;9.70;8.80;;;13.20;99.90;;;;;;5035065;28;20217;-65
2021/10/14 07:14:09;;;;;;;9.00;8.25;;;13.20;99.90;;;;;;5035291;28;20227;-65
2021/10/14 07:16:36;;;;;;;9.25;8.45;;;13.20;99.90;;;;;;5035106;28;20228;-65
2021/10/14 07:19:03;;;;;;;9.82;9.02;;;13.30;99.90;;;;;;5035270;28;20222;-65
2021/10/14 07:21:31;;;;;;;11.02;10.00;;;13.30;99.90;;;;;;5034921;28;20234;-65
2021/10/14 07:23:58;;;;;;;10.40;9.50;;;13.30;99.90;;;;;;5035243;28;20214;-65
2021/10/14 07:26:25;;;;;;;11.60;10.60;;;13.30;99.90;;;;;;5035255;28;20228;-65
2021/10/14 07:28:52;;;;;;;14.27;12.98;;;13.30;99.90;;;;;;5034766;28;20240;-64
2021/10/14 07:31:19;;;;;;;12.93;11.73;;;13.40;99.90;;;;;;5035193;28;20244;-64
2021/10/14 07:33:46;;;;;;;13.40;12.10;;;13.40;99.90;;;;;;5034744;28;20226;-65
2021/10/14 07:36:14;;;;;;;14.93;13.43;;;13.40;99.90;;;;;;5034722;28;20221;-65
2021/10/14 07:38:43;;;;;;;14.15;12.57;;;13.40;99.90;;;;;;5014018;28;20226;-64
2021/10/14 07:41:09;;;;;;;13.32;12.02;;;13.40;99.90;;;;;;5015307;28;20321;-64
2021/10/14 07:43:36;;;;;;;13.60;12.27;;;13.50;99.90;;;;;;5024984;28;20237;-64
2021/10/14 07:46:07;;;;;;;14.38;11.82;;;13.50;99.90;;;;;;5015231;28;20224;-65
2021/10/14 07:48:34;;;;;;;14.02;12.65;;;13.50;99.90;;;;;;5014262;28;20707;-65
2021/10/14 07:51:01;;;;;;;16.52;13.35;;;13.50;99.90;;;;;;5014850;28;20218;-65
2021/10/14 07:53:28;;;;;;;16.37;14.67;;;13.50;99.90;;;;;;5014718;28;20692;-64
2021/10/14 07:55:57;;;;;;;16.30;13.73;;;13.50;99.90;;;;;;5014482;28;20461;-65
2021/10/14 07:58:24;;;;;;;17.13;14.82;;;13.60;99.90;;;;;;5014542;28;20473;-64
2021/10/14 08:00:51;;;;;;;14.98;13.38;;;13.60;99.90;;;;;;5021309;28;20218;-64
2021/10/14 08:03:18;;;;;;;22.25;19.95;;;13.60;99.90;;;;;;5034477;28;20213;-64
2021/10/14 08:05:45;;;;;;;21.58;19.27;;;13.70;99.90;;;;;;5033969;28;20229;-65
2021/10/14 08:08:13;;;;;;;21.10;19.20;;;13.70;99.90;;;;;;5034406;28;20222;-65
2021/10/14 08:10:40;;;;;;;19.52;17.50;;;13.70;99.90;;;;;;5033668;28;20237;-64
2021/10/14 08:13:13;;;;;;;15.30;12.30;;;13.70;99.90;;;;;;5034268;28;20691;-65
2021/10/14 08:15:41;;;;;;;11.03;10.03;;;13.80;99.90;;;;;;5033850;28;20222;-65
2021/10/14 08:18:08;;;;;;;11.05;9.98;;;13.70;99.90;;;;;;5034235;28;20546;-65
2021/10/14 08:20:36;;;;;;;12.50;11.30;;;13.70;99.90;;;;;;5033572;28;20233;-64
2021/10/14 08:23:03;;;;;;;12.70;10.48;;;13.80;99.90;;;;;;5034382;28;20802;-64
2021/10/14 08:25:30;;;;;;;12.82;10.85;;;13.80;99.90;;;;;;5034007;28;20224;-65
2021/10/14 08:27:57;;;;;;;13.68;12.05;;;13.80;99.90;;;;;;5033592;28;20221;-65
2021/10/14 08:30:26;;;;;;;12.63;11.43;;;13.90;99.90;;;;;;5034083;28;20225;-65
2021/10/14 08:32:54;;;;;;;12.40;11.07;;;13.90;99.90;;;;;;5033638;28;20236;-65
2021/10/14 08:35:21;;;;;;;14.17;11.90;;;13.90;99.90;;;;;;5033931;28;20471;-65
2021/10/14 08:37:48;;;;;;;15.73;14.10;;;13.90;99.90;;;;;;5020158;28;20471;-65
2021/10/14 08:40:15;;;;;;;17.60;13.40;;;13.90;99.90;;;;;;5013963;28;20488;-65
2021/10/14 08:42:44;;;;;;;15.77;14.02;;;13.90;99.90;;;;;;5022451;28;20806;-65
2021/10/14 08:45:13;;;;;;;15.90;14.20;;;13.90;99.90;;;;;;5015188;28;20233;-65
2021/10/14 08:47:42;;;;;;;14.82;13.20;;;13.90;99.90;;;;;;5013621;28;20684;-65
2021/10/14 08:50:10;;;;;;;14.30;12.80;;;13.90;99.90;;;;;;5013043;28;20296;-65
2021/10/14 08:52:41;;;;;;;12.77;11.47;;;13.90;99.90;;;;;;5013473;28;20475;-65
2021/10/14 08:55:08;;;;;;;14.07;12.57;;;13.90;99.90;;;;;;5013701;28;20464;-65
2021/10/14 08:57:35;;;;;;;14.53;13.10;;;13.90;99.90;;;;;;5013541;28;20461;-64
2021/10/14 09:00:02;;;;;;;12.20;10.95;;;13.90;99.90;;;;;;5013588;28;20458;-65
2021/10/14 09:02:30;;;;;;;12.98;11.73;;;13.90;99.90;;;;;;5033463;28;20217;-65
2021/10/14 09:05:02;;;;;;;12.57;11.43;;;13.90;99.90;;;;;;5032909;28;20228;-65
2021/10/14 09:07:32;;;;;;;16.25;14.57;;;14.00;99.90;;;;;;5033475;28;20738;-65
2021/10/14 09:10:01;;;;;;;15.73;14.15;;;14.00;99.90;;;;;;5032779;28;20235;-65
2021/10/14 09:12:35;;;;;;;14.20;12.80;;;14.00;99.90;;;;;;5033177;28;20605;-65
2021/10/14 09:15:04;;;;;;;15.10;13.57;;;14.00;99.90;;;;;;5033226;28;20217;-65
2021/10/14 09:17:44;;;;;;;15.55;13.38;;;14.10;99.90;;;;;;5033326;28;20225;-65
2021/10/14 09:20:37;;;;;;;15.10;12.97;;;14.10;99.90;;;;;;5032696;28;20677;-65
2021/10/14 09:23:08;;;;;;;12.13;11.02;;;14.10;99.90;;;;;;5032906;28;20464;-65
2021/10/14 09:25:37;;;;;;;15.33;11.47;;;14.10;99.90;;;;;;5032846;28;20228;-65
2021/10/14 09:28:23;;;;;;;14.33;12.93;;;14.20;99.90;;;;;;5032681;28;20470;-66
2021/10/14 09:30:52;;;;;;;14.03;12.47;;;14.30;99.90;;;;;;5032664;28;20464;-66
2021/10/14 09:33:37;;;;;;;12.40;11.30;;;14.30;99.90;;;;;;5033165;28;20488;-65
2021/10/14 09:36:14;;;;;;;13.48;11.40;;;14.30;99.90;;;;;;5032710;28;20705;-66
2021/10/14 09:38:42;;;;;;;12.57;11.40;;;14.30;99.90;;;;;;5013045;28;20226;-66
2021/10/14 09:41:10;;;;;;;14.80;13.30;;;14.30;99.90;;;;;;5012752;28;20464;-66
2021/10/14 09:43:37;;;;;;;13.53;12.03;;;14.40;99.90;;;;;;5023470;28;20221;-65
2021/10/14 09:46:05;;;;;;;15.07;13.32;;;14.40;99.90;;;;;;5012654;28;20461;-66
2021/10/14 09:48:36;;;;;;;16.90;12.70;;;14.40;99.90;;;;;;5014449;28;20222;-66
2021/10/14 09:51:04;;;;;;;11.57;10.37;;;14.40;99.90;;;;;;5030069;28;21024;-63
2021/10/14 09:53:32;;;;;;;10.40;9.40;;;14.40;99.90;;;;;;5025598;28;20978;-63
2021/10/14 09:56:00;;;;;;;8.43;7.60;;;14.50;99.90;;;;;;5029126;28;20476;-66
2021/10/14 09:58:27;;;;;;;10.87;9.77;;;14.50;99.90;;;;;;5026475;28;20480;-66
2021/10/14 10:00:54;;;;;;;9.65;8.75;;;14.50;99.90;;;;;;5026494;28;20471;-66
2021/10/14 10:03:23;;;;;;;9.87;8.87;;;14.50;99.90;;;;;;5037581;28;20562;-66
2021/10/14 10:05:51;;;;;;;10.70;9.70;;;14.60;99.90;;;;;;5029202;28;20460;-66
2021/10/14 10:08:28;;;;;;;10.00;9.10;;;14.60;99.90;;;;;;5036947;28;21004;-66
2021/10/14 10:11:00;;;;;;;8.40;7.60;;;14.60;99.90;;;;;;5036695;28;20783;-66
2021/10/14 10:13:28;;;;;;;6.73;6.13;;;14.60;99.90;;;;;;5037823;28;20459;-66
2021/10/14 10:15:55;;;;;;;5.73;5.33;;;14.60;99.90;;;;;;5038198;28;20472;-66
2021/10/14 10:18:40;;;;;;;6.73;6.13;;;14.60;99.90;;;;;;5029711;28;20471;-65
2021/10/14 10:21:09;;;;;;;6.77;6.17;;;14.70;99.90;;;;;;5028146;28;20476;-66
2021/10/14 10:23:47;;;;;;;7.57;6.60;;;14.70;99.90;;;;;;5017939;28;20465;-65
2021/10/14 10:26:54;;;;;;;10.07;7.37;;;14.70;99.90;;;;;;5017111;28;20472;-66
2021/10/14 10:29:47;;;;;;;7.10;6.47;;;14.70;99.90;;;;;;5017502;28;20461;-66
2021/10/14 10:32:24;;;;;;;6.83;4.97;;;14.80;99.90;;;;;;5018371;28;20878;-66
2021/10/14 10:37:43;;;;;;;6.37;5.77;;;14.80;99.90;;;;;;5016654;28;20794;-66
2021/10/14 10:40:16;;;;;;;6.17;5.40;;;14.90;99.90;;;;;;5018204;28;20445;-66
2021/10/14 10:42:47;;;;;;;7.50;6.27;;;14.80;99.90;;;;;;5013980;28;20555;-66
2021/10/14 10:45:15;;;;;;;7.30;4.90;;;14.90;99.90;;;;;;5015916;28;20445;-66
2021/10/14 10:47:48;;;;;;;7.63;5.03;;;14.90;99.90;;;;;;5008567;28;20462;-66
2021/10/14 10:50:21;;;;;;;5.27;4.87;;;14.90;99.90;;;;;;4999157;28;21542;-66
2021/10/14 10:52:49;;;;;;;5.13;4.63;;;14.90;99.90;;;;;;5000442;28;20468;-66
2021/10/14 10:55:43;;;;;;;5.00;4.60;;;15.00;99.90;;;;;;5018481;28;20476;-65
2021/10/14 10:58:13;;;;;;;4.13;3.20;;;15.00;99.90;;;;;;5018593;28;20475;-65
2021/10/14 11:00:41;;;;;;;4.60;3.77;;;15.00;99.90;;;;;;5018465;28;20484;-65
2021/10/14 11:03:23;;;;;;;3.37;3.07;;;15.00;99.90;;;;;;5018548;28;20483;-65
2021/10/14 11:05:52;;;;;;;2.93;2.73;;;15.10;99.90;;;;;;5018946;28;20471;-65
2021/10/14 11:08:22;;;;;;;2.70;2.50;;;15.10;99.90;;;;;;5018559;28;21285;-65
2021/10/14 11:10:54;;;;;;;3.23;2.67;;;15.10;99.90;;;;;;5018838;28;20548;-65
2021/10/14 11:13:23;;;;;;;3.50;3.20;;;15.10;99.90;;;;;;5016474;28;20484;-65
2021/10/14 11:15:52;;;;;;;3.03;2.60;;;15.10;99.90;;;;;;5015750;28;20510;-65
2021/10/14 11:18:20;;;;;;;2.90;2.70;;;15.10;99.90;;;;;;5015071;28;20480;-65
2021/10/14 11:20:56;;;;;;;2.83;2.63;;;15.10;99.90;;;;;;5015622;28;20472;-65
2021/10/14 11:23:24;;;;;;;2.83;2.53;;;15.20;99.90;;;;;;5015281;28;21571;-65
2021/10/14 11:26:03;;;;;;;2.87;2.67;;;15.10;99.90;;;;;;5014317;28;20484;-65
2021/10/14 11:28:32;;;;;;;2.50;2.30;;;15.10;99.90;;;;;;5014197;28;20485;-65
2021/10/14 11:31:01;;;;;;;3.77;3.47;;;15.20;99.90;;;;;;5013858;28;20882;-65
2021/10/14 11:33:30;;;;;;;3.20;2.90;;;15.20;99.90;;;;;;5013354;28;20469;-65
2021/10/14 11:36:02;;;;;;;5.17;4.67;;;15.20;99.90;;;;;;5013377;28;20485;-65
2021/10/14 11:38:29;;;;;;;6.20;5.60;;;15.20;99.90;;;;;;5012817;28;20465;-65
2021/10/14 11:40:57;;;;;;;5.23;4.73;;;15.20;99.90;;;;;;5013748;28;20477;-65
2021/10/14 11:43:25;;;;;;;6.83;6.23;;;15.20;99.90;;;;;;5008075;28;20935;-65
2021/10/14 11:45:55;;;;;;;5.67;5.20;;;15.20;99.90;;;;;;5014272;28;20556;-65
2021/10/14 11:48:34;;;;;;;6.53;6.03;;;15.30;99.90;;;;;;5009339;28;20477;-65
2021/10/14 11:51:06;;;;;;;8.53;7.80;;;15.20;99.90;;;;;;5003890;28;20881;-65
2021/10/14 11:53:34;;;;;;;9.40;8.60;;;15.30;99.90;;;;;;5003311;28;21034;-65
2021/10/14 11:56:03;;;;;;;13.33;12.20;;;15.20;99.90;;;;;;5006445;28;20891;-66
2021/10/14 11:58:30;;;;;;;11.43;10.43;;;15.20;99.90;;;;;;5012172;28;21160;-66
2021/10/14 12:01:02;;;;;;;12.03;10.93;;;15.20;99.90;;;;;;5011112;28;20540;-66
2021/10/14 12:03:30;;;;;;;11.00;8.40;;;15.20;99.90;;;;;;5012732;28;20457;-65
2021/10/14 12:05:57;;;;;;;10.70;9.70;;;15.20;99.90;;;;;;5008643;28;20882;-66
2021/10/14 12:08:25;;;;;;;10.17;9.30;;;15.20;99.90;;;;;;5010140;28;20473;-65
2021/10/14 12:10:54;;;;;;;9.33;8.07;;;15.20;99.90;;;;;;5012063;28;20564;-66
2021/10/14 12:13:26;;;;;;;11.13;9.93;;;15.20;99.90;;;;;;5013151;28;20564;-65
2021/10/14 12:16:08;;;;;;;8.97;8.13;;;15.20;99.90;;;;;;5011500;28;20555;-65
2021/10/14 12:18:35;;;;;;;14.03;12.53;;;15.20;99.90;;;;;;5011074;28;20469;-65
2021/10/14 12:21:03;;;;;;;20.47;15.97;;;15.20;99.90;;;;;;5012799;28;20796;-65
2021/10/14 12:23:31;;;;;;;24.30;20.50;;;15.20;99.90;;;;;;5008006;28;20480;-65
2021/10/14 12:26:12;;;;;;;41.07;28.30;;;15.20;99.90;;;;;;5011517;28;20484;-66
2021/10/14 12:28:41;;;;;;;130.23;79.30;;;15.20;99.90;;;;;;5008013;28;20527;-67
2021/10/14 12:31:12;;;;;;;89.73;61.10;;;15.20;99.90;;;;;;5010909;28;20469;-66
2021/10/14 12:33:39;;;;;;;87.50;55.40;;;15.20;99.90;;;;;;5006612;28;20558;-67
2021/10/14 12:36:06;;;;;;;74.23;49.70;;;15.20;99.90;;;;;;5002714;28;20474;-67
2021/10/14 12:38:38;;;;;;;56.40;38.30;;;15.30;99.90;;;;;;5012498;28;20477;-67
2021/10/14 12:41:08;;;;;;;39.00;29.70;;;15.30;99.90;;;;;;5013217;28;20784;-67
2021/10/14 12:43:41;;;;;;;37.20;25.27;;;15.30;99.90;;;;;;5011716;28;20477;-67
2021/10/14 12:46:26;;;;;;;32.87;24.47;;;15.40;99.90;;;;;;5011422;28;20611;-67
2021/10/14 12:49:20;;;;;;;24.20;20.53;;;15.40;99.90;;;;;;5007713;28;20472;-67
2021/10/14 12:51:48;;;;;;;19.83;15.83;;;15.50;99.90;;;;;;5010164;28;20466;-67